Time;durP1;ratioP1;P1;durP2;ratioP2;P2;SDS_P1;SDS_P2;PMS_P1;PMS_P2;Temp;Humidity;BMP_temperature;BMP_pressure;BME280_temperature;BME280_humidity;BME280_pressure;Samples;Min_cycle;Max_cycle;Signal;HPM_P1;HPM_P2
2021/09/13 00:01:55;;;;;;;4.22;1.77;;;16.40;92.40;;;;;;4900604;29;20048;-84
2021/09/13 00:04:21;;;;;;;3.90;1.30;;;16.40;92.30;;;;;;4900793;29;20044;-84
2021/09/13 00:06:46;;;;;;;4.72;1.40;;;16.40;92.20;;;;;;4900655;29;20079;-84
2021/09/13 00:09:12;;;;;;;5.28;1.45;;;16.40;92.10;;;;;;4901843;29;20051;-85
2021/09/13 00:11:38;;;;;;;4.05;1.50;;;16.40;92.00;;;;;;4900455;29;20062;-84
2021/09/13 00:14:03;;;;;;;3.70;1.30;;;16.40;92.20;;;;;;4901886;29;20078;-84
2021/09/13 00:16:29;;;;;;;5.40;1.40;;;16.40;92.20;;;;;;4900508;29;20047;-84
2021/09/13 00:18:55;;;;;;;2.92;1.33;;;16.40;91.90;;;;;;4901092;29;20040;-84
2021/09/13 00:21:20;;;;;;;3.80;1.20;;;16.40;91.90;;;;;;4901577;29;20051;-84
2021/09/13 00:23:46;;;;;;;2.50;1.10;;;16.40;91.90;;;;;;4900145;29;20040;-84
2021/09/13 00:26:12;;;;;;;3.78;1.40;;;16.40;91.80;;;;;;4901105;29;20134;-84
2021/09/13 00:28:37;;;;;;;3.80;1.27;;;16.40;92.10;;;;;;4900887;29;20500;-84
2021/09/13 00:31:03;;;;;;;5.13;1.30;;;16.40;91.80;;;;;;4900198;29;20044;-84
2021/09/13 00:33:31;;;;;;;3.45;1.20;;;16.40;91.50;;;;;;4901189;29;20051;-84
2021/09/13 00:35:56;;;;;;;3.58;1.20;;;16.40;91.40;;;;;;4900571;29;20377;-84
2021/09/13 00:38:22;;;;;;;4.22;1.35;;;16.40;91.80;;;;;;4901009;29;20656;-84
2021/09/13 00:40:47;;;;;;;7.55;1.30;;;16.40;91.60;;;;;;4901324;29;20040;-84
2021/09/13 00:43:13;;;;;;;4.47;1.60;;;16.40;92.00;;;;;;4901375;29;20480;-83
2021/09/13 00:45:39;;;;;;;3.63;1.20;;;16.40;92.10;;;;;;4885274;29;20052;-84
2021/09/13 00:48:04;;;;;;;5.60;1.75;;;16.40;92.00;;;;;;4882381;29;20135;-83
2021/09/13 01:00:52;;;;;;;3.50;1.23;;;16.40;92.20;;;;;;5900045;23;20015;-83
2021/09/13 01:03:17;;;;;;;3.60;1.33;;;16.40;92.00;;;;;;4900858;29;20122;-84
2021/09/13 01:05:43;;;;;;;4.18;1.05;;;16.40;92.10;;;;;;4900198;29;20064;-84
2021/09/13 01:08:08;;;;;;;2.78;1.10;;;16.50;91.90;;;;;;4900778;29;20044;-84
2021/09/13 01:10:34;;;;;;;4.88;1.30;;;16.50;92.00;;;;;;4900792;29;20059;-84
2021/09/13 01:13:00;;;;;;;2.78;1.00;;;16.50;92.10;;;;;;4900193;29;20850;-83
2021/09/13 01:15:26;;;;;;;3.40;1.15;;;16.40;92.20;;;;;;4900514;29;20535;-84
2021/09/13 01:17:52;;;;;;;2.90;1.10;;;16.50;92.10;;;;;;4900039;29;20048;-84
2021/09/13 01:20:17;;;;;;;4.93;1.23;;;16.50;92.20;;;;;;4899788;29;20119;-85
2021/09/13 01:22:45;;;;;;;3.35;1.23;;;16.50;92.10;;;;;;4900209;29;20431;-83
2021/09/13 01:25:11;;;;;;;3.28;1.05;;;16.50;92.20;;;;;;4900608;29;20081;-84
2021/09/13 01:27:37;;;;;;;3.65;1.20;;;16.50;92.00;;;;;;4899224;29;20072;-84
2021/09/13 01:30:04;;;;;;;3.67;0.95;;;16.50;92.10;;;;;;4900465;29;20048;-84
2021/09/13 01:32:30;;;;;;;4.18;1.30;;;16.50;92.00;;;;;;4899763;29;20055;-84
2021/09/13 02:09:40;;;;;;;8.68;1.58;;;16.30;91.60;;;;;;4767284;30;20113;-83
2021/09/13 02:12:11;;;;;;;3.97;1.20;;;16.30;92.00;;;;;;4810954;29;20061;-83
2021/09/13 02:14:37;;;;;;;6.72;1.38;;;16.40;92.10;;;;;;4899918;29;20055;-83
2021/09/13 02:17:23;;;;;;;3.63;0.98;;;16.40;92.10;;;;;;4899091;29;20441;-84
2021/09/13 02:20:04;;;;;;;3.55;1.10;;;16.40;91.80;;;;;;4899426;29;20107;-84
2021/09/13 02:22:30;;;;;;;3.67;1.27;;;16.40;92.10;;;;;;4900080;29;20083;-83
2021/09/13 02:24:55;;;;;;;3.67;1.13;;;16.40;92.20;;;;;;4899261;29;20044;-84
2021/09/13 02:27:21;;;;;;;6.75;1.35;;;16.40;92.10;;;;;;4900339;29;20115;-84
2021/09/13 02:29:46;;;;;;;4.25;1.20;;;16.40;92.00;;;;;;4899742;29;20116;-84
2021/09/13 02:32:17;;;;;;;3.00;0.95;;;16.40;92.20;;;;;;4909552;29;20123;-84
2021/09/13 02:53:15;;;;;;;6.07;1.27;;;16.30;92.40;;;;;;4881154;29;20116;-84
2021/09/13 02:55:46;;;;;;;4.18;1.23;;;16.30;92.40;;;;;;4880176;29;20140;-83
2021/09/13 02:58:17;;;;;;;3.60;1.00;;;16.30;92.40;;;;;;4883267;29;20100;-84
2021/09/13 03:00:57;;;;;;;5.53;1.17;;;16.40;92.30;;;;;;4879242;29;20560;-84
2021/09/13 03:03:23;;;;;;;4.18;1.00;;;16.40;92.10;;;;;;4865896;29;20045;-84
2021/09/13 03:05:52;;;;;;;5.20;1.10;;;16.40;91.90;;;;;;4864795;29;20105;-84
2021/09/13 03:08:18;;;;;;;3.67;1.05;;;16.30;91.80;;;;;;4865902;29;20056;-84
2021/09/13 03:10:49;;;;;;;4.55;1.00;;;16.30;92.00;;;;;;4865395;29;20108;-84
2021/09/13 03:13:15;;;;;;;4.38;0.98;;;16.40;92.00;;;;;;4864903;29;20100;-85
2021/09/13 03:15:43;;;;;;;3.92;1.27;;;16.40;91.90;;;;;;4865299;29;20092;-85
2021/09/13 03:59:59;;;;;;;5.22;1.38;;;16.20;91.80;;;;;;4884186;29;20095;-83
2021/09/13 04:02:44;;;;;;;4.43;1.25;;;16.30;91.90;;;;;;4882200;29;20075;-83
2021/09/13 04:05:25;;;;;;;4.45;1.23;;;16.20;92.10;;;;;;4883176;29;20040;-84
2021/09/13 04:12:49;;;;;;;3.85;1.13;;;16.30;92.40;;;;;;4882630;29;20084;-84
2021/09/13 04:15:15;;;;;;;3.42;1.20;;;16.30;92.50;;;;;;4882806;29;20052;-83
2021/09/13 04:17:41;;;;;;;7.22;1.40;;;16.30;92.60;;;;;;4890195;29;20461;-83
2021/09/13 04:20:07;;;;;;;3.13;1.10;;;16.30;92.60;;;;;;4888920;29;20405;-83
2021/09/13 04:22:33;;;;;;;3.72;1.10;;;16.30;92.60;;;;;;4882068;29;20104;-84
2021/09/13 04:25:00;;;;;;;3.97;1.10;;;16.30;92.30;;;;;;4882761;29;20048;-84
2021/09/13 04:27:26;;;;;;;3.97;1.38;;;16.30;92.50;;;;;;4889649;29;20104;-85
2021/09/13 04:29:52;;;;;;;5.25;1.40;;;16.30;92.50;;;;;;4890702;29;20052;-84
2021/09/13 04:32:17;;;;;;;4.07;1.30;;;16.30;92.40;;;;;;4882691;29;20143;-82
2021/09/13 04:34:43;;;;;;;3.65;1.02;;;16.30;92.10;;;;;;4882592;29;20544;-90
2021/09/13 04:37:11;;;;;;;5.82;1.30;;;16.30;92.00;;;;;;4882126;29;20056;-90
2021/09/13 04:39:37;;;;;;;5.25;1.27;;;16.30;91.90;;;;;;4898043;29;20049;-89
2021/09/13 04:42:03;;;;;;;4.05;1.10;;;16.30;91.90;;;;;;4882387;29;20079;-86
2021/09/13 04:44:28;;;;;;;4.43;1.15;;;16.30;91.80;;;;;;4881303;29;20064;-84
2021/09/13 04:46:54;;;;;;;3.13;1.15;;;16.20;91.70;;;;;;4882118;29;20041;-83
2021/09/13 04:49:21;;;;;;;4.55;1.40;;;16.20;91.70;;;;;;4889649;29;20051;-84
2021/09/13 04:51:46;;;;;;;4.20;1.30;;;16.20;91.80;;;;;;4883159;29;20096;-81
2021/09/13 04:54:12;;;;;;;3.25;1.38;;;16.20;91.80;;;;;;4880939;29;20048;-80
2021/09/13 04:56:38;;;;;;;4.55;1.10;;;16.20;91.90;;;;;;4880566;29;20051;-83
2021/09/13 04:59:12;;;;;;;4.55;1.40;;;16.20;91.80;;;;;;5071292;23;20011;31
2021/09/13 05:01:53;;;;;;;6.53;1.20;;;16.20;91.60;;;;;;4879162;29;20080;-87
2021/09/13 05:04:22;;;;;;;3.80;1.27;;;16.20;92.00;;;;;;4861081;29;20045;-86
2021/09/13 05:06:57;;;;;;;3.95;1.30;;;16.20;91.90;;;;;;4860841;29;20049;-86
2021/09/13 05:09:22;;;;;;;4.15;1.27;;;16.20;91.90;;;;;;4861034;29;20497;-86
2021/09/13 05:11:48;;;;;;;3.00;1.10;;;16.20;91.80;;;;;;4860273;29;20053;-86
2021/09/13 05:14:14;;;;;;;4.03;1.40;;;16.20;91.60;;;;;;4861137;29;20045;-86
2021/09/13 05:16:40;;;;;;;3.83;1.35;;;16.20;91.80;;;;;;4860933;29;20061;-86
2021/09/13 05:19:05;;;;;;;4.82;1.40;;;16.20;92.20;;;;;;4890810;29;20045;-85
2021/09/13 05:21:36;;;;;;;4.88;1.40;;;16.20;92.20;;;;;;4860451;29;20491;-86
2021/09/13 05:24:02;;;;;;;3.97;1.23;;;16.20;92.30;;;;;;4861340;29;20049;-86
2021/09/13 05:26:27;;;;;;;4.30;1.27;;;16.20;92.50;;;;;;4860145;29;20041;-86
2021/09/13 05:28:53;;;;;;;5.22;1.30;;;16.20;92.50;;;;;;4860204;29;20053;-86
2021/09/13 05:31:18;;;;;;;4.50;1.50;;;16.20;92.50;;;;;;4860473;29;20054;-86
2021/09/13 05:33:44;;;;;;;4.82;1.10;;;16.20;92.50;;;;;;4859881;29;20057;-87
2021/09/13 05:36:09;;;;;;;3.90;1.27;;;16.20;92.60;;;;;;4860358;29;20851;-87
2021/09/13 05:38:36;;;;;;;3.42;1.23;;;16.20;92.50;;;;;;4859984;29;20493;-87
2021/09/13 05:41:02;;;;;;;6.68;1.40;;;16.20;92.60;;;;;;4859182;29;20113;-86
2021/09/13 06:09:01;;;;;;;4.38;1.10;;;16.20;91.90;;;;;;4874668;29;20088;-87
2021/09/13 06:11:27;;;;;;;7.20;1.85;;;16.20;92.10;;;;;;4846673;29;20126;-87
2021/09/13 07:13:42;;;;;;;6.43;1.80;;;16.20;92.10;;;;;;4907059;28;20968;-87
2021/09/13 07:24:20;;;;;;;11.07;2.25;;;16.40;92.60;;;;;;4881962;29;20077;-85
2021/09/13 08:17:32;;;;;;;7.80;1.30;;;17.00;91.20;;;;;;4898266;29;20107;-87
2021/09/13 08:32:12;;;;;;;;;;;17.20;90.80;;;;;;4884726;29;20055;-87
2021/09/13 08:34:43;;;;;;;5.68;1.20;;;17.10;90.90;;;;;;4882677;29;19948;-89
2021/09/13 08:37:21;;;;;;;3.42;0.80;;;17.20;91.20;;;;;;4882261;29;20052;-89
2021/09/13 08:39:50;;;;;;;8.77;1.30;;;17.30;91.20;;;;;;4882638;29;20067;-87
2021/09/13 08:42:16;;;;;;;5.15;1.40;;;17.30;91.00;;;;;;4882843;29;20054;-88
2021/09/13 08:44:59;;;;;;;7.97;1.55;;;17.40;91.00;;;;;;4881841;29;20501;-88
2021/09/13 08:50:41;;;;;;;6.85;1.40;;;17.40;91.10;;;;;;4882063;29;20067;-88
2021/09/13 08:53:22;;;;;;;8.18;1.45;;;17.50;91.10;;;;;;4881928;29;20063;-88
2021/09/13 08:55:50;;;;;;;9.00;1.60;;;17.50;90.90;;;;;;4870303;29;20040;-87
2021/09/13 08:58:33;;;;;;;6.75;1.35;;;17.50;90.80;;;;;;4890066;29;20052;-88
2021/09/13 09:01:06;;;;;;;7.57;1.40;;;17.50;90.60;;;;;;4881438;29;20057;-88
2021/09/13 09:06:49;;;;;;;7.38;1.42;;;17.50;90.70;;;;;;4877865;29;20048;-87
2021/09/13 09:09:25;;;;;;;10.57;1.90;;;17.60;90.90;;;;;;4882044;29;20037;-86
2021/09/13 09:48:19;;;;;;;6.07;1.50;;;17.70;91.00;;;;;;4518150;27;19307102;-88
2021/09/13 09:50:56;;;;;;;4.63;1.35;;;17.80;91.00;;;;;;5172789;27;20050;-85
2021/09/13 09:53:28;;;;;;;3.97;1.20;;;17.80;91.20;;;;;;5174948;27;20581;-85
2021/09/13 10:00:25;;;;;;;5.65;1.30;;;17.90;90.40;;;;;;5172701;27;20222;-86
2021/09/13 10:21:40;;;;;;;6.25;1.10;;;18.20;90.00;;;;;;5128104;28;20455;-86
2021/09/13 10:24:32;;;;;;;5.65;1.10;;;18.30;89.60;;;;;;5112540;28;20094;-86
2021/09/13 10:27:20;;;;;;;4.13;1.20;;;18.30;89.70;;;;;;5111394;28;20133;-86
2021/09/13 10:49:23;;;;;;;6.70;1.10;;;18.60;88.00;;;;;;5036349;28;20063;-86
2021/09/13 10:52:35;;;;;;;2.85;0.73;;;18.70;87.20;;;;;;5070178;28;20044;-86
2021/09/13 10:55:18;;;;;;;4.15;0.98;;;18.70;88.40;;;;;;5108117;28;20398;-85
2021/09/13 10:58:22;;;;;;;2.33;0.80;;;18.70;89.00;;;;;;5105394;28;20138;-86
2021/09/13 11:00:50;;;;;;;2.90;1.05;;;18.80;89.80;;;;;;5160729;27;20058;-87
2021/09/13 11:03:34;;;;;;;4.88;0.90;;;18.80;90.10;;;;;;5161458;27;20133;-87
2021/09/13 11:06:05;;;;;;;3.88;1.00;;;18.90;90.20;;;;;;5160491;27;20405;-84
2021/09/13 11:08:41;;;;;;;6.38;0.90;;;19.00;90.30;;;;;;5160608;27;20429;-84
2021/09/13 11:11:10;;;;;;;4.05;0.80;;;19.00;90.00;;;;;;5160399;27;20061;-86
2021/09/13 11:13:37;;;;;;;4.03;1.02;;;19.00;89.70;;;;;;5159703;27;20034;-86
2021/09/13 11:16:03;;;;;;;3.67;1.00;;;19.10;88.60;;;;;;5161210;27;20484;-86
2021/09/13 11:18:42;;;;;;;2.65;0.60;;;19.10;89.20;;;;;;5160779;27;20133;-86
2021/09/13 11:21:20;;;;;;;3.78;1.05;;;19.20;89.70;;;;;;5161273;27;20057;-87
2021/09/13 11:23:53;;;;;;;5.13;1.00;;;19.20;89.50;;;;;;5160255;27;20034;-86
2021/09/13 11:26:27;;;;;;;4.10;0.93;;;19.20;89.20;;;;;;5160227;27;20377;-86
2021/09/13 11:28:55;;;;;;;3.70;0.90;;;19.30;90.00;;;;;;5160924;27;20504;-87
2021/09/13 11:31:30;;;;;;;2.25;0.82;;;19.30;90.00;;;;;;5160701;27;20105;-86
2021/09/13 11:33:56;;;;;;;4.47;1.05;;;19.40;89.80;;;;;;5159777;27;20042;-87
2021/09/13 11:36:27;;;;;;;2.22;0.65;;;19.40;89.40;;;;;;5159169;27;20050;-86
2021/09/13 11:39:07;;;;;;;4.53;0.95;;;19.50;89.60;;;;;;5155299;27;20042;-86
2021/09/13 11:41:35;;;;;;;2.50;0.70;;;19.50;89.50;;;;;;5158831;27;20042;-86
2021/09/13 11:44:07;;;;;;;3.70;0.77;;;19.60;90.00;;;;;;5159738;27;20114;-88
2021/09/13 11:46:56;;;;;;;5.40;0.63;;;19.60;90.00;;;;;;5158757;27;20060;-91
2021/09/13 11:49:24;;;;;;;2.92;0.77;;;19.70;86.80;;;;;;5159700;27;20477;-86
2021/09/13 11:52:03;;;;;;;2.53;0.80;;;19.70;85.90;;;;;;5159363;27;20038;-87
2021/09/13 11:57:32;;;;;;;3.25;0.80;;;19.80;88.30;;;;;;5472935;22;20053;-92
2021/09/13 12:00:16;;;;;;;5.20;0.90;;;19.80;88.70;;;;;;5048445;28;20041;-92
2021/09/13 12:03:13;;;;;;;3.55;0.70;;;19.80;85.60;;;;;;5058625;28;20071;-93
2021/09/13 12:05:57;;;;;;;4.60;0.85;;;19.80;85.50;;;;;;5058290;28;20040;-88
2021/09/13 12:49:31;;;;;;;;;;;;;;;;;;;;;
2021/09/13 13:02:29;;;;;;;3.13;0.68;;;20.50;84.70;;;;;;4940104;29;20467;-90
2021/09/13 13:21:03;;;;;;;5.68;0.95;;;20.80;88.00;;;;;;4897203;29;20141;-90
2021/09/13 13:23:37;;;;;;;3.53;0.70;;;20.80;86.60;;;;;;4894461;29;20092;-90
2021/09/13 13:29:44;;;;;;;3.50;0.70;;;20.90;87.80;;;;;;4897253;29;20152;-95
2021/09/13 13:35:22;;;;;;;2.50;0.60;;;21.00;88.00;;;;;;5038456;22;20053;-90
2021/09/13 13:41:39;;;;;;;2.40;0.70;;;21.10;88.00;;;;;;5015011;28;20115;-90
2021/09/13 13:44:56;;;;;;;4.15;0.90;;;21.10;88.20;;;;;;4997534;28;20050;-90
2021/09/13 13:51:13;;;;;;;3.28;0.90;;;21.20;88.40;;;;;;5014360;28;20076;-90
2021/09/13 13:54:13;;;;;;;3.72;1.02;;;21.20;88.80;;;;;;4996500;28;20054;-90
2021/09/13 13:56:49;;;;;;;2.58;0.80;;;21.20;87.80;;;;;;4997172;28;20046;-90
2021/09/13 13:59:31;;;;;;;4.20;1.13;;;21.30;86.90;;;;;;4998594;28;20038;-90
2021/09/13 14:12:47;;;;;;;3.22;1.02;;;21.30;87.80;;;;;;4989791;28;20107;-87
2021/09/13 14:15:44;;;;;;;3.05;1.05;;;21.40;88.60;;;;;;4958089;28;20046;-92
2021/09/13 14:26:22;;;;;;;;;;;;;;;;;;;;;
2021/09/13 14:29:23;;;;;;;5.13;1.27;;;21.40;87.10;;;;;;4936755;28;20057;-88
2021/09/13 14:39:21;;;;;;;2.95;0.80;;;21.40;87.20;;;;;;4936851;29;20043;-91
2021/09/13 14:42:00;;;;;;;4.28;1.00;;;21.50;87.60;;;;;;4916125;29;20044;-88
2021/09/13 14:52:04;;;;;;;3.80;1.00;;;21.50;81.80;;;;;;4918197;29;20050;-88
2021/09/13 15:13:54;;;;;;;2.78;0.80;;;21.50;87.40;;;;;;4943777;28;20049;-91
2021/09/13 15:17:03;;;;;;;5.25;0.80;;;21.50;87.90;;;;;;4999269;28;20517;-90
2021/09/13 15:19:29;;;;;;;2.83;0.85;;;21.50;85.50;;;;;;4900598;29;20575;-91
2021/09/13 15:29:42;;;;;;;3.65;0.90;;;21.60;87.50;;;;;;5209784;22;20073;-93
2021/09/13 15:32:47;;;;;;;3.22;0.85;;;21.60;87.60;;;;;;4978495;28;20108;-93
2021/09/13 15:35:16;;;;;;;2.58;0.80;;;21.60;87.10;;;;;;4981556;28;20065;-93
2021/09/13 15:37:54;;;;;;;2.00;0.68;;;21.70;87.70;;;;;;4980960;28;20150;-93
2021/09/13 15:40:19;;;;;;;3.33;0.77;;;21.70;87.70;;;;;;4981073;28;20046;-95
2021/09/13 15:42:45;;;;;;;1.95;0.77;;;21.80;88.00;;;;;;4980995;28;20057;-92
2021/09/13 15:45:12;;;;;;;2.10;0.70;;;21.80;88.00;;;;;;4979917;28;20505;-96
2021/09/13 15:47:43;;;;;;;2.20;0.60;;;21.80;87.00;;;;;;4980021;28;20045;-91
2021/09/13 15:50:16;;;;;;;2.25;0.65;;;21.80;87.40;;;;;;4981164;28;20042;-96
2021/09/13 15:52:51;;;;;;;1.65;0.55;;;21.80;87.60;;;;;;4981781;28;20198;-96
2021/09/13 15:55:16;;;;;;;2.75;0.60;;;21.80;87.40;;;;;;4982087;28;20042;-96
2021/09/13 15:57:45;;;;;;;3.30;0.65;;;21.80;87.40;;;;;;4980976;28;20045;-94
2021/09/13 16:00:14;;;;;;;1.98;0.70;;;21.80;87.20;;;;;;4980579;28;20112;-93
2021/09/13 16:02:40;;;;;;;2.03;0.65;;;21.80;87.30;;;;;;4981153;28;20050;-94
2021/09/13 16:05:19;;;;;;;2.45;0.70;;;21.80;87.30;;;;;;4981158;28;20497;-94
2021/09/13 16:07:45;;;;;;;1.73;0.70;;;21.80;87.10;;;;;;4980467;28;20057;-95
2021/09/13 16:28:57;;;;;;;2.42;0.73;;;21.60;87.70;;;;;;4933688;29;20079;-92
2021/09/13 16:32:37;;;;;;;2.17;0.70;;;21.60;88.20;;;;;;4926785;23;20050;-95
2021/09/13 16:35:04;;;;;;;2.63;0.75;;;21.60;88.30;;;;;;5015749;28;20092;-94
2021/09/13 17:07:42;;;;;;;2.58;0.70;;;21.50;88.80;;;;;;4917222;29;20112;-89
2021/09/13 17:10:07;;;;;;;;;;;21.50;88.90;;;;;;4908703;29;20065;-90
2021/09/13 17:13:32;;;;;;;2.65;0.80;;;21.40;89.00;;;;;;4925338;28;19926;-91
2021/09/13 17:23:39;;;;;;;1.63;0.70;;;21.30;89.30;;;;;;4821986;29;20042;-89
2021/09/13 17:34:57;;;;;;;3.60;0.80;;;21.00;89.10;;;;;;5219970;22;20057;-91
2021/09/13 17:37:32;;;;;;;3.50;1.08;;;21.00;89.60;;;;;;5003507;28;20046;-90
2021/09/13 17:40:33;;;;;;;;;;;;;;;;;;;;;
2021/09/13 17:43:36;;;;;;;3.63;1.00;;;20.90;89.90;;;;;;5017566;28;20160;-89
2021/09/13 17:46:09;;;;;;;3.97;1.10;;;20.90;89.70;;;;;;5005963;28;20141;-89
2021/09/13 17:49:00;;;;;;;;;;;;;;;;;;;;;
2021/09/13 17:56:31;;;;;;;;;;;;;;;;;;;;;
2021/09/13 18:02:22;;;;;;;1.77;0.80;;;20.60;90.10;;;;;;4945621;28;20046;-91
2021/09/13 18:04:48;;;;;;;5.22;1.00;;;20.60;90.20;;;;;;4977622;28;20062;-90
2021/09/13 18:07:30;;;;;;;2.78;0.80;;;20.50;90.30;;;;;;4975757;28;20136;-90
2021/09/13 18:14:08;;;;;;;3.85;0.93;;;20.40;89.30;;;;;;4949474;29;20090;-90
2021/09/13 18:33:01;;;;;;;4.30;1.00;;;20.10;89.20;;;;;;5485798;22;20054;-85
2021/09/13 18:39:20;;;;;;;5.97;1.27;;;20.00;88.60;;;;;;5197739;23;20045;-92
2021/09/13 18:41:45;;;;;;;3.83;1.08;;;19.90;89.20;;;;;;5037449;28;20555;-91
2021/09/13 18:44:14;;;;;;;4.55;1.20;;;19.90;89.10;;;;;;5023338;28;20041;-93
2021/09/13 18:46:40;;;;;;;6.25;1.20;;;19.90;89.10;;;;;;5040211;28;20048;-93
2021/09/13 18:51:53;;;;;;;3.45;1.13;;;19.80;89.00;;;;;;5211430;23;20050;-92
2021/09/13 18:54:37;;;;;;;3.55;1.10;;;19.70;88.70;;;;;;4998764;28;20042;-92
2021/09/13 18:57:12;;;;;;;3.67;1.15;;;19.60;88.80;;;;;;4994884;28;20103;-92
2021/09/13 18:59:44;;;;;;;3.35;0.98;;;19.60;89.40;;;;;;4997270;28;20052;-92
2021/09/13 20:05:03;;;;;;;3.00;1.10;;;18.30;90.10;;;;;;5043460;28;20078;-91
2021/09/13 22:46:06;;;;;;;5.43;1.55;;;15.70;92.00;;;;;;5982000;23;20031;31
2021/09/13 23:45:58;;;;;;;4.93;1.77;;;15.10;91.90;;;;;;4924788;23;20088;-88
2021/09/13 23:48:23;;;;;;;4.95;1.60;;;15.00;92.60;;;;;;4903663;29;20091;-88
2021/09/13 23:50:49;;;;;;;4.55;1.67;;;15.00;92.50;;;;;;4902733;29;20044;-88
2021/09/13 23:53:15;;;;;;;4.10;1.50;;;15.00;92.50;;;;;;4903463;29;20044;-88
2021/09/13 23:55:41;;;;;;;2.92;1.23;;;15.00;92.50;;;;;;4902260;29;20048;-89
